Terminal Aerodrome Forecast
Issued by NWS Twin Cities, MN

Home | Current Version | Previous Version | Graphics & Text | Print | Product List | Glossary On
Versions: 1 2 3 4 5 6 7 8 9 10 11 12 13 14 15 16 17 18 19
000
FTUS43 KMPX 251724
TAFSTC
TAF
KSTC 251724Z 2518/2618 01008KT P6SM SCT050 OVC110
     FM252200 02007KT P6SM -SHRA SCT020 OVC050
      TEMPO 2522/2602 BKN020
     FM260200 02010G18KT 5SM -SHRA BR SCT012 OVC020
     FM260500 02013G23KT 6SM -RA BR OVC008=

USA.gov is the U.S. government's official web portal to all federal, state and local government web resources and services.